Time;durP1;ratioP1;P1;durP2;ratioP2;P2;SDS_P1;SDS_P2;PMS_P1;PMS_P2;Temp;Humidity;BMP_temperature;BMP_pressure;BME280_temperature;BME280_humidity;BME280_pressure;Samples;Min_cycle;Max_cycle;Signal;HPM_P1;HPM_P2
2021/09/05 00:02:22;;;;;;;45.75;16.55;;;13.10;99.90;;;;;;4860671;29;20053;-91
2021/09/05 00:04:47;;;;;;;49.85;16.30;;;13.00;99.90;;;;;;4877096;29;20541;-91
2021/09/05 00:07:13;;;;;;;44.92;15.48;;;13.00;99.90;;;;;;4844521;29;20048;-92
2021/09/05 00:09:40;;;;;;;50.97;18.40;;;13.00;99.90;;;;;;4846094;29;20048;-91
2021/09/05 00:12:07;;;;;;;49.65;18.30;;;13.00;99.90;;;;;;4855488;29;20098;-92
2021/09/05 00:14:32;;;;;;;50.22;19.85;;;13.00;99.90;;;;;;4831281;29;20053;-92
2021/09/05 00:16:58;;;;;;;55.42;19.38;;;13.00;99.90;;;;;;4876382;29;20420;-91
2021/09/05 00:19:24;;;;;;;57.05;19.73;;;13.10;99.90;;;;;;4846069;29;20080;-92
2021/09/05 00:21:49;;;;;;;59.38;19.13;;;13.00;99.90;;;;;;4861160;29;20053;-92
2021/09/05 00:24:15;;;;;;;59.95;20.55;;;13.10;99.90;;;;;;4852016;29;20051;-92
2021/09/05 00:26:42;;;;;;;51.75;19.50;;;13.00;99.90;;;;;;4841779;29;20444;-92
2021/09/05 00:29:08;;;;;;;54.03;19.35;;;13.00;99.90;;;;;;4836482;29;20147;-92
2021/09/05 00:31:33;;;;;;;49.50;18.67;;;13.00;99.90;;;;;;4836644;29;20111;-91
2021/09/05 00:34:02;;;;;;;55.30;19.52;;;13.00;99.90;;;;;;4831168;29;20056;-93
2021/09/05 00:36:27;;;;;;;68.15;22.40;;;12.90;99.90;;;;;;4861757;29;20057;-92
2021/09/05 00:38:53;;;;;;;59.08;20.10;;;12.90;99.90;;;;;;4860042;29;20048;-91
2021/09/05 00:41:19;;;;;;;48.70;19.20;;;12.90;99.90;;;;;;4846041;29;20090;-91
2021/09/05 00:43:52;;;;;;;72.65;22.98;;;12.90;99.90;;;;;;4846454;29;20057;-91
2021/09/05 00:46:18;;;;;;;75.30;22.67;;;12.90;99.90;;;;;;4852909;29;20061;-91
2021/09/05 00:48:44;;;;;;;71.15;25.67;;;12.90;99.90;;;;;;4846382;29;20367;-91
2021/09/05 00:51:09;;;;;;;70.00;25.52;;;12.90;99.90;;;;;;4861191;29;20166;-92
2021/09/05 00:53:35;;;;;;;78.25;24.15;;;12.90;99.90;;;;;;4863953;29;20053;-91
2021/09/05 00:56:01;;;;;;;80.50;24.80;;;12.90;99.90;;;;;;4857639;29;20085;-93
2021/09/05 00:58:26;;;;;;;79.60;24.58;;;12.90;99.90;;;;;;4857919;29;20068;-92
2021/09/05 01:00:52;;;;;;;56.42;22.83;;;12.90;99.90;;;;;;4866502;29;20053;-91
2021/09/05 01:03:18;;;;;;;78.35;23.88;;;12.90;99.90;;;;;;4857715;29;20057;-91
2021/09/05 01:05:43;;;;;;;73.32;24.40;;;12.80;99.90;;;;;;4857884;29;20466;-91
2021/09/05 01:08:09;;;;;;;70.00;23.45;;;12.80;99.90;;;;;;4820469;29;20045;-90
2021/09/05 01:10:35;;;;;;;86.57;26.70;;;12.70;99.90;;;;;;4847907;29;20050;-92
2021/09/05 01:13:02;;;;;;;98.43;27.67;;;12.70;99.90;;;;;;4836794;29;20139;-91
2021/09/05 01:15:27;;;;;;;90.72;27.65;;;12.70;99.90;;;;;;4846166;29;20465;-90
2021/09/05 01:17:53;;;;;;;93.32;29.23;;;12.60;99.90;;;;;;4854743;29;20121;-91
2021/09/05 01:20:19;;;;;;;94.00;30.20;;;12.60;99.90;;;;;;4861591;29;20677;-91
2021/09/05 01:22:44;;;;;;;111.45;31.40;;;12.60;99.90;;;;;;4846668;29;20487;-91
2021/09/05 01:25:10;;;;;;;101.07;29.48;;;12.60;99.90;;;;;;4837617;29;20097;-91
2021/09/05 01:27:36;;;;;;;97.15;29.42;;;12.50;99.90;;;;;;4862420;29;20080;-91
2021/09/05 01:30:04;;;;;;;73.10;25.45;;;12.50;99.90;;;;;;4855902;29;20136;-92
2021/09/05 01:32:29;;;;;;;103.45;30.73;;;12.50;99.90;;;;;;4862058;29;20132;-90
2021/09/05 01:34:55;;;;;;;99.38;29.15;;;12.50;99.90;;;;;;4854948;29;20575;-90
2021/09/05 01:37:21;;;;;;;92.25;27.55;;;12.50;99.90;;;;;;4845901;29;20045;-91
2021/09/05 01:39:46;;;;;;;81.20;28.98;;;12.50;99.90;;;;;;4844617;29;20423;-90
2021/09/05 01:42:12;;;;;;;80.00;28.10;;;12.40;99.90;;;;;;4836922;29;20120;-90
2021/09/05 01:44:38;;;;;;;69.57;25.90;;;12.40;99.90;;;;;;4861857;29;20062;-91
2021/09/05 01:47:04;;;;;;;93.75;29.92;;;12.40;99.90;;;;;;4840352;29;20049;-92
2021/09/05 01:49:30;;;;;;;101.80;30.98;;;12.30;99.90;;;;;;4853053;29;20065;-90
2021/09/05 01:51:55;;;;;;;103.07;30.65;;;12.30;99.90;;;;;;4839146;29;20103;-91
2021/09/05 01:54:21;;;;;;;96.30;31.17;;;12.30;99.90;;;;;;4845578;29;20089;-90
2021/09/05 01:56:47;;;;;;;100.65;32.35;;;12.20;99.90;;;;;;4861268;29;20061;-90
2021/09/05 01:59:12;;;;;;;118.40;35.30;;;12.30;99.90;;;;;;4861291;29;20520;-90
2021/09/05 02:01:38;;;;;;;83.45;28.17;;;12.30;99.90;;;;;;4861323;29;20057;-89
2021/09/05 02:04:05;;;;;;;99.70;31.33;;;12.30;99.90;;;;;;4861110;29;20049;-93
2021/09/05 02:06:31;;;;;;;94.30;32.22;;;12.20;99.90;;;;;;4834586;29;20061;-91
2021/09/05 02:08:57;;;;;;;109.72;34.50;;;12.20;99.90;;;;;;4843676;29;20053;-92
2021/09/05 02:11:23;;;;;;;88.18;30.60;;;12.30;99.90;;;;;;4860339;29;20041;-90
2021/09/05 02:13:50;;;;;;;82.80;29.98;;;12.30;99.90;;;;;;4862257;29;20045;-89
2021/09/05 02:16:16;;;;;;;80.22;29.52;;;12.30;99.90;;;;;;4861523;29;20145;-90
2021/09/05 02:18:42;;;;;;;91.05;30.85;;;12.30;99.90;;;;;;4837418;29;20046;-89
2021/09/05 02:21:08;;;;;;;88.25;31.45;;;12.30;99.90;;;;;;4842772;29;20123;-91
2021/09/05 02:23:33;;;;;;;92.35;33.08;;;12.30;99.90;;;;;;4845731;29;20081;-91
2021/09/05 02:25:59;;;;;;;82.55;29.80;;;12.30;99.90;;;;;;4844608;29;20490;-91
2021/09/05 02:28:25;;;;;;;98.03;33.42;;;12.30;99.90;;;;;;4845060;29;20046;-90
2021/09/05 02:30:51;;;;;;;64.32;26.65;;;12.30;99.90;;;;;;4845524;29;20072;-91
2021/09/05 02:33:16;;;;;;;81.78;29.58;;;12.20;99.90;;;;;;4844251;29;20056;-91
2021/09/05 02:35:42;;;;;;;64.45;25.88;;;12.20;99.90;;;;;;4860850;29;20053;-91
2021/09/05 02:38:08;;;;;;;76.43;30.00;;;12.20;99.90;;;;;;4845000;29;20061;-91
2021/09/05 02:40:34;;;;;;;69.03;27.17;;;12.20;99.90;;;;;;4845169;29;20049;-90
2021/09/05 02:43:00;;;;;;;81.38;27.77;;;12.20;99.90;;;;;;4860213;29;20057;-91
2021/09/05 02:45:25;;;;;;;87.28;28.33;;;12.10;99.90;;;;;;4844948;29;20061;-90
2021/09/05 02:47:51;;;;;;;76.32;28.70;;;12.10;99.90;;;;;;4844829;29;20458;-91
2021/09/05 02:50:17;;;;;;;69.35;28.75;;;12.10;99.90;;;;;;4849498;29;20105;-91
2021/09/05 02:52:42;;;;;;;75.95;26.58;;;12.00;99.90;;;;;;4838563;29;20139;-90
2021/09/05 02:55:08;;;;;;;63.53;25.67;;;12.00;99.90;;;;;;4835555;29;20065;-92
2021/09/05 02:57:35;;;;;;;54.05;23.02;;;12.00;99.90;;;;;;4857828;29;20779;-91
2021/09/05 03:00:01;;;;;;;69.43;26.73;;;11.90;99.90;;;;;;4863126;29;20522;-90
2021/09/05 03:02:27;;;;;;;69.57;27.50;;;11.90;99.90;;;;;;4887723;29;20100;-91
2021/09/05 03:04:52;;;;;;;72.55;27.88;;;11.90;99.90;;;;;;4860406;29;20062;-90
2021/09/05 03:07:18;;;;;;;73.55;28.73;;;11.90;99.90;;;;;;4861744;29;20557;-90
2021/09/05 03:09:44;;;;;;;62.00;25.77;;;11.90;99.90;;;;;;4859165;29;20458;-90
2021/09/05 03:12:10;;;;;;;68.00;25.45;;;11.80;99.90;;;;;;4856119;29;20053;-93
2021/09/05 03:14:35;;;;;;;67.97;26.58;;;11.80;99.90;;;;;;4847387;29;20048;-91
2021/09/05 03:17:01;;;;;;;62.42;25.30;;;11.80;99.90;;;;;;4863279;29;20049;-91
2021/09/05 03:19:27;;;;;;;65.65;26.92;;;11.80;99.90;;;;;;4862443;29;20393;-91
2021/09/05 03:21:52;;;;;;;62.25;25.33;;;11.80;99.90;;;;;;4847727;29;20503;-90
2021/09/05 03:24:18;;;;;;;69.65;26.20;;;11.70;99.90;;;;;;4817214;29;20135;-91
2021/09/05 03:26:44;;;;;;;68.95;29.00;;;11.70;99.90;;;;;;4863219;29;20041;-91
2021/09/05 03:29:10;;;;;;;71.72;27.05;;;11.70;99.90;;;;;;4847697;29;20045;-91
2021/09/05 03:31:36;;;;;;;67.97;26.27;;;11.70;99.90;;;;;;4846976;29;20088;-90
2021/09/05 03:34:01;;;;;;;74.40;27.77;;;11.70;99.90;;;;;;4848419;29;20077;-90
2021/09/05 03:36:27;;;;;;;90.95;29.98;;;11.60;99.90;;;;;;4845386;29;20049;-91
2021/09/05 03:38:53;;;;;;;71.63;27.20;;;11.50;99.90;;;;;;4849243;29;20081;-90
2021/09/05 03:41:18;;;;;;;81.53;30.52;;;11.50;99.90;;;;;;4866745;29;20044;-93
2021/09/05 03:43:44;;;;;;;72.40;28.38;;;11.50;99.90;;;;;;4860894;29;20064;-90
2021/09/05 03:46:10;;;;;;;77.72;28.77;;;11.50;99.90;;;;;;4861058;29;20060;-90
2021/09/05 03:48:36;;;;;;;81.75;30.65;;;11.50;99.90;;;;;;4876438;29;20163;-90
2021/09/05 03:51:01;;;;;;;81.80;28.52;;;11.40;99.90;;;;;;4862329;29;20056;-91
2021/09/05 03:53:27;;;;;;;89.43;31.15;;;11.40;99.90;;;;;;4846557;29;20052;-91
2021/09/05 03:55:53;;;;;;;98.22;34.38;;;11.50;99.90;;;;;;4862119;29;20061;-92
2021/09/05 03:58:19;;;;;;;91.68;31.23;;;11.40;99.90;;;;;;4877508;29;20061;-91
2021/09/05 04:00:45;;;;;;;80.65;30.08;;;11.40;99.90;;;;;;4862817;29;20387;-91
2021/09/05 04:03:11;;;;;;;68.18;26.52;;;11.40;99.90;;;;;;4862303;29;20490;-90
2021/09/05 04:05:37;;;;;;;84.05;30.27;;;11.40;99.90;;;;;;4877255;29;20045;-90
2021/09/05 04:10:29;;;;;;;97.07;33.63;;;11.40;99.90;;;;;;4846141;29;20048;-90
2021/09/05 04:12:55;;;;;;;119.18;35.35;;;11.30;99.90;;;;;;4861961;29;20060;-89
2021/09/05 04:15:21;;;;;;;92.22;29.48;;;11.40;99.90;;;;;;4839378;29;20053;-90
2021/09/05 04:17:46;;;;;;;111.30;33.63;;;11.30;99.90;;;;;;4846596;29;20061;-89
2021/09/05 04:20:13;;;;;;;108.18;33.95;;;11.30;99.90;;;;;;4861970;29;20120;-89
2021/09/05 04:22:38;;;;;;;91.05;31.63;;;11.30;99.90;;;;;;4861434;29;20053;-90
2021/09/05 04:25:05;;;;;;;114.28;34.08;;;11.20;99.90;;;;;;4846397;29;20052;-91
2021/09/05 04:27:31;;;;;;;111.70;35.38;;;11.20;99.90;;;;;;4877024;29;20068;-91
2021/09/05 04:29:57;;;;;;;118.47;36.92;;;11.20;99.90;;;;;;4861741;29;20053;-90
2021/09/05 04:32:23;;;;;;;121.32;35.60;;;11.20;99.90;;;;;;4869430;29;20533;-91
2021/09/05 04:34:50;;;;;;;101.18;32.63;;;11.20;99.90;;;;;;4833588;29;20053;-91
2021/09/05 04:37:17;;;;;;;99.60;33.10;;;11.20;99.90;;;;;;4862023;29;20060;-91
2021/09/05 04:39:43;;;;;;;135.20;39.17;;;11.20;99.90;;;;;;4845925;29;20085;-92
2021/09/05 04:42:10;;;;;;;97.57;33.28;;;11.20;99.90;;;;;;4846382;29;20092;-91
2021/09/05 04:44:36;;;;;;;130.75;36.78;;;11.20;99.90;;;;;;4861139;29;20064;-91
2021/09/05 04:47:02;;;;;;;137.68;39.03;;;11.30;99.90;;;;;;4846525;29;20112;-92
2021/09/05 04:49:28;;;;;;;132.82;37.35;;;11.40;99.90;;;;;;4860718;29;20049;-91
2021/09/05 04:51:54;;;;;;;132.13;40.47;;;11.40;99.90;;;;;;4861484;29;20049;-92
2021/09/05 04:54:20;;;;;;;142.10;39.58;;;11.40;99.90;;;;;;4876595;29;20454;-91
2021/09/05 04:56:46;;;;;;;146.73;41.03;;;11.50;99.90;;;;;;4846989;29;20501;-90
2021/09/05 04:59:12;;;;;;;144.52;41.10;;;11.50;99.90;;;;;;4876910;29;20056;-90
2021/09/05 05:01:37;;;;;;;132.10;39.65;;;11.60;99.90;;;;;;4845662;29;20123;-91
2021/09/05 05:04:03;;;;;;;123.68;36.60;;;11.60;99.90;;;;;;4845952;29;20048;-90
2021/09/05 05:06:29;;;;;;;142.32;41.70;;;11.70;99.90;;;;;;4860782;29;20049;-91
2021/09/05 05:08:55;;;;;;;134.93;38.53;;;11.70;99.90;;;;;;4876705;29;20401;-92
2021/09/05 05:11:20;;;;;;;151.73;42.42;;;11.80;99.90;;;;;;4860784;29;20056;-91
2021/09/05 05:13:46;;;;;;;126.38;38.60;;;11.80;99.90;;;;;;4876881;29;20063;-91
2021/09/05 05:16:12;;;;;;;122.95;37.92;;;11.90;99.90;;;;;;4876631;29;20489;-91
2021/09/05 05:18:38;;;;;;;106.82;35.53;;;12.00;99.90;;;;;;4860609;29;20049;-90
2021/09/05 05:21:04;;;;;;;187.57;43.55;;;12.00;99.90;;;;;;4832489;29;20483;-90
2021/09/05 05:23:30;;;;;;;106.10;32.22;;;12.00;99.90;;;;;;4856733;29;20045;-91
2021/09/05 05:25:57;;;;;;;133.02;34.58;;;12.00;99.90;;;;;;4861373;29;20126;-90
2021/09/05 05:28:23;;;;;;;135.55;32.75;;;12.10;99.90;;;;;;4848671;29;20045;-91
2021/09/05 05:30:48;;;;;;;241.15;39.30;;;12.10;99.90;;;;;;4845671;29;20041;-90
2021/09/05 05:33:14;;;;;;;211.90;38.05;;;12.10;99.90;;;;;;4845334;29;20056;-91
2021/09/05 05:35:40;;;;;;;111.75;28.88;;;12.10;99.90;;;;;;4876105;29;20113;-91
2021/09/05 05:38:05;;;;;;;290.00;40.42;;;12.20;99.90;;;;;;4845612;29;20049;-90
2021/09/05 05:40:35;;;;;;;266.33;35.63;;;12.20;99.90;;;;;;4874926;29;20044;-90
2021/09/05 05:43:02;;;;;;;116.50;30.02;;;12.20;99.90;;;;;;4859348;29;20064;-92
2021/09/05 05:45:27;;;;;;;188.82;33.53;;;12.20;99.90;;;;;;4843534;29;20059;-92
2021/09/05 05:47:53;;;;;;;292.30;40.40;;;12.20;99.90;;;;;;4859495;29;20398;-90
2021/09/05 05:50:19;;;;;;;252.13;34.55;;;12.20;99.90;;;;;;4852457;29;20044;-91
2021/09/05 05:52:45;;;;;;;385.48;39.15;;;12.30;99.90;;;;;;4859571;29;20301;-91
2021/09/05 05:55:10;;;;;;;329.42;38.45;;;12.30;99.90;;;;;;4855218;29;20065;-92
2021/09/05 05:57:36;;;;;;;178.52;29.67;;;12.30;99.90;;;;;;4874865;29;20511;-92
2021/09/05 06:00:05;;;;;;;203.35;29.58;;;12.40;99.90;;;;;;4860914;29;20061;-93
2021/09/05 06:02:31;;;;;;;390.73;42.05;;;12.40;99.90;;;;;;4862465;29;20045;-92
2021/09/05 06:04:57;;;;;;;240.20;31.17;;;12.40;99.90;;;;;;4847615;29;20512;-92
2021/09/05 06:07:24;;;;;;;186.40;31.30;;;12.50;99.90;;;;;;4864103;29;20045;-93
2021/09/05 06:09:50;;;;;;;227.35;33.15;;;12.50;99.90;;;;;;4853079;29;20052;-92
2021/09/05 06:12:16;;;;;;;128.55;28.98;;;12.60;99.90;;;;;;4870796;29;20512;-91
2021/09/05 06:14:41;;;;;;;225.40;35.40;;;12.60;99.90;;;;;;4833099;29;20045;-91
2021/09/05 06:17:07;;;;;;;194.95;27.02;;;12.60;99.90;;;;;;4864378;29;20056;-91
2021/09/05 06:19:33;;;;;;;205.50;32.10;;;12.70;99.90;;;;;;4848517;29;20051;-90
2021/09/05 06:21:58;;;;;;;196.05;30.33;;;12.70;99.90;;;;;;4895301;29;20059;-91
2021/09/05 06:24:24;;;;;;;174.05;27.88;;;12.80;99.90;;;;;;4864147;29;20048;-93
2021/09/05 06:26:50;;;;;;;241.65;26.25;;;12.80;99.90;;;;;;4864055;29;20565;-91
2021/09/05 06:29:15;;;;;;;233.02;24.77;;;12.80;99.90;;;;;;4864904;29;20455;-92
2021/09/05 06:31:41;;;;;;;163.60;24.52;;;12.80;99.90;;;;;;4849463;29;20051;-91
2021/09/05 06:34:07;;;;;;;170.82;23.75;;;12.80;99.90;;;;;;4834552;29;20056;-91
2021/09/05 06:36:33;;;;;;;208.23;23.70;;;12.80;99.90;;;;;;4849233;29;20092;-92
2021/09/05 06:38:58;;;;;;;230.57;28.05;;;12.90;99.90;;;;;;4848592;29;20049;-91
2021/09/05 06:41:24;;;;;;;201.70;25.92;;;12.90;99.90;;;;;;4863601;29;20045;-92
2021/09/05 06:43:50;;;;;;;191.45;26.45;;;13.00;99.90;;;;;;4863964;29;20056;-92
2021/09/05 06:46:15;;;;;;;175.85;26.77;;;13.10;99.90;;;;;;4870007;29;20041;-92
2021/09/05 06:48:44;;;;;;;121.32;22.63;;;13.00;99.90;;;;;;4863948;29;20502;-92
2021/09/05 06:51:11;;;;;;;283.08;33.60;;;13.10;99.90;;;;;;4864193;29;20379;-91
2021/09/05 06:53:37;;;;;;;175.57;24.63;;;13.10;99.90;;;;;;4864652;29;20402;-90
2021/09/05 06:56:03;;;;;;;118.47;24.58;;;13.20;99.90;;;;;;4863486;29;20498;-91
2021/09/05 06:58:29;;;;;;;124.90;23.80;;;13.30;99.90;;;;;;4863971;29;20060;-92
2021/09/05 07:00:55;;;;;;;90.38;19.20;;;13.30;99.90;;;;;;4874687;29;20733;-92
2021/09/05 07:03:20;;;;;;;200.45;25.55;;;13.40;99.90;;;;;;4848151;29;20085;-92
2021/09/05 07:05:47;;;;;;;110.45;20.27;;;13.40;99.90;;;;;;4882214;29;20048;-91
2021/09/05 07:08:13;;;;;;;69.22;21.00;;;13.50;99.90;;;;;;4852713;29;20056;-90
2021/09/05 07:10:39;;;;;;;82.20;20.00;;;13.60;99.90;;;;;;4867613;29;20071;-91
2021/09/05 07:13:05;;;;;;;92.13;21.75;;;13.60;99.90;;;;;;4882949;29;20060;-91
2021/09/05 07:15:30;;;;;;;65.40;17.85;;;13.70;99.90;;;;;;4867537;29;20071;-91
2021/09/05 07:17:56;;;;;;;124.25;21.27;;;13.80;99.90;;;;;;4865142;29;20056;-91
2021/09/05 07:20:22;;;;;;;72.72;21.40;;;13.80;99.90;;;;;;4848236;29;20048;-92
2021/09/05 07:22:48;;;;;;;78.43;20.67;;;13.90;99.90;;;;;;4855477;29;20132;-93
2021/09/05 07:25:14;;;;;;;87.65;20.52;;;14.00;99.90;;;;;;4832643;29;20053;-89
2021/09/05 07:27:40;;;;;;;93.43;19.77;;;14.10;99.90;;;;;;4870353;29;20490;-89
2021/09/05 07:30:06;;;;;;;90.05;20.23;;;14.10;99.90;;;;;;4864164;29;20063;-89
2021/09/05 07:32:32;;;;;;;57.13;19.15;;;14.20;99.90;;;;;;4863693;29;20079;-88
2021/09/05 07:34:58;;;;;;;47.03;19.00;;;14.20;99.90;;;;;;4862945;29;20085;-88
2021/09/05 07:37:23;;;;;;;72.13;19.90;;;14.30;99.90;;;;;;4863571;29;20052;-89
2021/09/05 07:39:49;;;;;;;68.20;19.40;;;14.30;99.90;;;;;;4846005;29;20049;-89
2021/09/05 07:42:15;;;;;;;49.38;15.55;;;14.30;99.90;;;;;;4864300;29;20490;-90
2021/09/05 07:44:41;;;;;;;49.75;16.15;;;14.40;99.90;;;;;;4848207;29;20105;-89
2021/09/05 07:47:07;;;;;;;29.13;15.73;;;14.50;99.90;;;;;;4865187;29;20056;-88
2021/09/05 07:49:32;;;;;;;43.38;15.80;;;14.50;99.90;;;;;;4863626;29;20081;-91
2021/09/05 07:51:58;;;;;;;41.90;16.15;;;14.60;99.90;;;;;;4860532;29;20100;-90
2021/09/05 07:54:24;;;;;;;34.58;15.38;;;14.60;99.90;;;;;;4872064;29;20050;-91
2021/09/05 07:56:49;;;;;;;31.00;16.13;;;14.70;99.90;;;;;;4854417;29;20068;-90
2021/09/05 07:59:15;;;;;;;27.55;14.55;;;14.70;99.90;;;;;;4847029;29;20497;-92
2021/09/05 08:01:41;;;;;;;33.50;15.70;;;14.90;99.90;;;;;;4852890;29;20040;-92
2021/09/05 08:04:06;;;;;;;21.25;14.07;;;15.00;99.90;;;;;;4864863;29;20104;-90
2021/09/05 08:06:32;;;;;;;27.48;14.88;;;15.00;99.90;;;;;;4846030;29;20049;-91
2021/09/05 08:08:58;;;;;;;27.42;15.35;;;15.10;99.90;;;;;;4862230;29;20602;-91
2021/09/05 08:11:24;;;;;;;24.67;13.93;;;15.10;99.90;;;;;;4831512;29;20751;-92
2021/09/05 08:13:50;;;;;;;34.67;15.48;;;15.20;99.90;;;;;;4861581;29;20104;-91
2021/09/05 08:16:16;;;;;;;25.90;14.48;;;15.20;99.90;;;;;;4862200;29;20052;-90
2021/09/05 08:18:43;;;;;;;30.55;16.00;;;15.20;99.90;;;;;;4874797;29;20391;-93
2021/09/05 08:21:09;;;;;;;26.00;16.05;;;15.30;99.90;;;;;;4867782;29;20103;-90
2021/09/05 08:23:36;;;;;;;22.50;15.90;;;15.30;99.90;;;;;;4846351;29;20482;-90
2021/09/05 08:26:04;;;;;;;29.10;15.93;;;15.50;99.90;;;;;;4846249;29;20058;-91
2021/09/05 08:28:30;;;;;;;26.10;16.30;;;15.50;99.90;;;;;;4862149;29;20120;-90
2021/09/05 08:30:56;;;;;;;25.98;15.32;;;15.60;99.90;;;;;;4846785;29;20432;-91
2021/09/05 08:33:22;;;;;;;23.38;15.73;;;15.70;99.90;;;;;;4860608;29;20498;-91
2021/09/05 08:35:48;;;;;;;30.42;17.00;;;15.60;99.90;;;;;;4843946;29;20089;-92
2021/09/05 08:38:14;;;;;;;26.67;17.00;;;15.70;99.90;;;;;;4875629;29;20057;-92
2021/09/05 08:40:45;;;;;;;23.83;15.60;;;15.80;99.90;;;;;;4860478;29;20282;-95
2021/09/05 08:43:12;;;;;;;25.90;16.13;;;15.80;99.90;;;;;;4860574;29;20131;-91
2021/09/05 08:45:38;;;;;;;32.58;18.02;;;15.90;99.90;;;;;;4861702;29;20554;-91
2021/09/05 08:48:05;;;;;;;27.42;16.75;;;15.90;99.90;;;;;;4845971;29;20537;-92
2021/09/05 08:50:32;;;;;;;28.92;17.38;;;16.00;99.90;;;;;;4861662;29;20083;-91
2021/09/05 08:52:58;;;;;;;23.75;15.95;;;16.00;99.90;;;;;;4861264;29;20057;-91
2021/09/05 08:55:24;;;;;;;29.27;16.20;;;16.10;99.90;;;;;;4841628;29;20061;-91
2021/09/05 08:57:52;;;;;;;24.70;15.57;;;16.20;99.90;;;;;;4869916;29;20104;-91
2021/09/05 09:00:18;;;;;;;25.42;14.43;;;16.20;99.90;;;;;;4846330;29;20139;-91
2021/09/05 09:02:52;;;;;;;19.80;14.32;;;16.20;99.90;;;;;;4861737;29;20128;-93
2021/09/05 09:05:36;;;;;;;24.00;14.30;;;16.20;99.90;;;;;;4846380;29;20155;-91
2021/09/05 09:08:10;;;;;;;20.83;13.80;;;16.30;99.90;;;;;;4852376;29;20130;-91
2021/09/05 09:10:48;;;;;;;27.25;13.32;;;16.30;99.90;;;;;;4831120;29;20053;-92
2021/09/05 09:13:34;;;;;;;23.65;13.63;;;16.50;99.90;;;;;;4833178;29;20045;-91
2021/09/05 09:16:08;;;;;;;22.88;12.75;;;16.60;99.90;;;;;;4861238;29;20061;-92
2021/09/05 09:18:36;;;;;;;19.85;12.93;;;16.70;99.90;;;;;;4836418;29;20076;-92
2021/09/05 09:21:05;;;;;;;23.27;12.57;;;16.80;99.90;;;;;;4860744;29;20197;-92
2021/09/05 09:23:34;;;;;;;18.43;11.13;;;16.90;99.90;;;;;;4861336;29;20049;-91
2021/09/05 09:26:07;;;;;;;19.77;11.98;;;16.90;99.90;;;;;;4845444;29;20151;-92
2021/09/05 09:28:47;;;;;;;21.25;11.25;;;17.10;99.90;;;;;;4846177;29;20056;-92
2021/09/05 09:31:18;;;;;;;17.60;11.13;;;17.30;99.90;;;;;;4845637;29;20080;-92
2021/09/05 09:33:46;;;;;;;21.13;11.38;;;17.40;99.90;;;;;;4845785;29;20401;-91
2021/09/05 09:36:18;;;;;;;17.00;11.10;;;17.50;99.90;;;;;;4863780;29;20063;-92
2021/09/05 09:38:58;;;;;;;19.60;11.45;;;17.50;99.90;;;;;;4875874;29;20049;-92
2021/09/05 09:41:29;;;;;;;18.60;10.52;;;17.50;99.90;;;;;;4864708;29;20056;-91
2021/09/05 09:43:57;;;;;;;13.45;10.48;;;17.70;99.90;;;;;;4864166;29;20049;-92
2021/09/05 09:46:28;;;;;;;19.77;10.93;;;17.70;99.90;;;;;;4849312;29;20049;-92
2021/09/05 09:48:55;;;;;;;17.38;11.35;;;17.70;99.90;;;;;;4866737;29;20139;-92
2021/09/05 09:51:22;;;;;;;15.77;10.18;;;17.80;99.90;;;;;;4834145;29;20049;-92
2021/09/05 09:53:49;;;;;;;21.60;10.75;;;17.80;99.90;;;;;;4864542;29;20045;-94
2021/09/05 09:56:16;;;;;;;15.68;10.00;;;17.70;99.90;;;;;;4848654;29;20061;-91
2021/09/05 09:58:44;;;;;;;13.40;9.63;;;17.70;99.90;;;;;;4838766;29;20498;-91
2021/09/05 10:01:15;;;;;;;14.75;10.20;;;17.80;99.90;;;;;;4848842;29;20053;-92
2021/09/05 10:03:43;;;;;;;12.68;9.60;;;17.80;99.90;;;;;;4864166;29;20084;-92
2021/09/05 10:06:11;;;;;;;16.00;10.20;;;17.90;99.90;;;;;;4848842;29;20057;-93
2021/09/05 10:08:39;;;;;;;18.42;10.73;;;17.90;99.90;;;;;;4864407;29;20075;-92
2021/09/05 10:11:09;;;;;;;17.30;10.07;;;17.90;99.90;;;;;;4848577;29;20045;-91
2021/09/05 10:13:39;;;;;;;17.52;10.73;;;18.10;99.90;;;;;;4864287;29;20064;-92
2021/09/05 10:16:06;;;;;;;17.48;10.57;;;18.10;99.90;;;;;;4848129;29;20490;-92
2021/09/05 10:18:35;;;;;;;17.67;10.45;;;18.10;99.90;;;;;;4879497;29;20407;-92
2021/09/05 10:21:01;;;;;;;16.60;9.65;;;18.10;99.90;;;;;;4848275;29;20077;-92
2021/09/05 10:23:28;;;;;;;14.73;9.70;;;18.10;99.90;;;;;;4864241;29;20081;-91
2021/09/05 10:25:56;;;;;;;16.92;10.63;;;18.20;99.90;;;;;;4848346;29;20501;-93
2021/09/05 10:28:39;;;;;;;13.93;9.57;;;18.20;99.90;;;;;;4863972;29;20061;-92
2021/09/05 10:31:07;;;;;;;17.77;10.50;;;18.30;99.90;;;;;;4863403;29;20045;-92
2021/09/05 10:33:38;;;;;;;18.50;10.77;;;18.30;99.90;;;;;;4863927;29;20053;-92
2021/09/05 10:36:05;;;;;;;14.52;9.38;;;18.20;99.90;;;;;;4845504;29;20053;-91
2021/09/05 10:38:36;;;;;;;20.38;9.85;;;18.30;99.90;;;;;;4863400;29;20053;-93
2021/09/05 10:41:20;;;;;;;15.98;10.05;;;18.30;99.90;;;;;;4863026;29;20053;-92
2021/09/05 10:44:04;;;;;;;13.98;9.52;;;18.40;99.90;;;;;;4873942;29;20057;-90
2021/09/05 10:46:39;;;;;;;16.38;10.55;;;18.50;99.90;;;;;;4858142;29;20060;-91
2021/09/05 10:49:05;;;;;;;17.77;10.32;;;18.50;99.90;;;;;;4843785;29;20525;-93
2021/09/05 10:51:50;;;;;;;15.68;9.50;;;18.60;99.90;;;;;;4856025;29;20537;-91
2021/09/05 10:54:23;;;;;;;15.57;11.23;;;18.60;99.90;;;;;;4860504;29;20044;-90
2021/09/05 10:56:49;;;;;;;16.33;10.18;;;18.60;99.90;;;;;;4860899;29;20056;-91
2021/09/05 10:59:22;;;;;;;22.27;11.30;;;18.60;99.90;;;;;;4861112;29;20041;-90
2021/09/05 11:01:47;;;;;;;15.82;9.52;;;18.70;99.90;;;;;;4851438;29;20114;-92
2021/09/05 11:06:46;;;;;;;12.13;9.20;;;18.70;99.90;;;;;;4872768;29;20143;-90
2021/09/05 11:09:22;;;;;;;14.18;9.45;;;18.80;99.90;;;;;;4860122;29;20044;-91
2021/09/05 11:12:13;;;;;;;14.65;9.52;;;18.90;99.90;;;;;;4846154;29;20065;-92
2021/09/05 11:14:49;;;;;;;18.33;10.73;;;18.90;99.90;;;;;;4862191;29;20777;-92
2021/09/05 11:17:18;;;;;;;17.45;9.68;;;19.00;99.90;;;;;;4840131;29;20053;-92
2021/09/05 11:19:48;;;;;;;;;;;19.10;99.90;;;;;;4845984;29;20067;-91
2021/09/05 11:22:20;;;;;;;20.30;9.48;;;19.20;99.90;;;;;;4861552;29;19964;-91
2021/09/05 11:25:03;;;;;;;16.60;10.45;;;19.20;99.90;;;;;;4846520;29;20520;-92
2021/09/05 11:27:28;;;;;;;30.50;10.30;;;19.30;99.90;;;;;;4849473;29;20041;-91
2021/09/05 11:29:59;;;;;;;15.00;9.23;;;19.30;99.90;;;;;;4852834;29;20064;-91
2021/09/05 11:32:25;;;;;;;16.65;9.43;;;19.40;99.90;;;;;;4838758;29;20053;-92
2021/09/05 11:34:53;;;;;;;15.75;8.80;;;19.40;99.90;;;;;;4865317;29;20493;-92
2021/09/05 11:37:29;;;;;;;13.65;8.55;;;19.40;99.90;;;;;;4864607;29;20473;-91
2021/09/05 11:39:56;;;;;;;14.43;8.02;;;19.50;99.90;;;;;;4861861;29;20045;-92
2021/09/05 11:42:22;;;;;;;18.23;8.70;;;19.60;99.90;;;;;;4860963;29;20083;-92
2021/09/05 11:44:48;;;;;;;16.23;8.10;;;19.70;99.90;;;;;;4861280;29;20084;-92
2021/09/05 11:47:19;;;;;;;16.55;8.77;;;19.70;99.90;;;;;;4830799;29;20105;-93
2021/09/05 11:49:47;;;;;;;16.60;8.93;;;19.70;99.90;;;;;;4861021;29;20088;-91
2021/09/05 11:52:23;;;;;;;14.57;8.50;;;19.80;99.90;;;;;;4876297;29;20641;-92
2021/09/05 11:54:57;;;;;;;15.82;9.02;;;19.80;99.90;;;;;;4854995;29;20494;-93
2021/09/05 11:57:24;;;;;;;16.42;8.55;;;20.00;99.90;;;;;;4846499;29;20744;-91
2021/09/05 11:59:53;;;;;;;11.10;8.48;;;20.10;99.90;;;;;;4861283;29;20060;-92
2021/09/05 12:02:28;;;;;;;18.67;9.20;;;20.20;99.90;;;;;;4862372;29;20131;-92
2021/09/05 12:04:54;;;;;;;12.60;7.88;;;20.30;99.90;;;;;;4850801;29;20057;-91
2021/09/05 12:07:19;;;;;;;11.77;7.82;;;20.40;99.90;;;;;;4861523;29;20056;-93
2021/09/05 12:09:45;;;;;;;17.20;8.27;;;20.50;99.90;;;;;;4830626;29;20405;-92
2021/09/05 12:12:11;;;;;;;10.93;7.85;;;20.60;99.90;;;;;;4845346;29;20253;-92
2021/09/05 12:14:38;;;;;;;11.05;7.07;;;20.70;99.90;;;;;;4861035;29;20049;-91
2021/09/05 12:17:20;;;;;;;7.93;5.95;;;20.70;99.90;;;;;;4845688;29;20712;-93
2021/09/05 12:20:06;;;;;;;11.00;5.80;;;20.80;99.90;;;;;;4845412;29;20108;-92
2021/09/05 12:22:51;;;;;;;10.60;6.07;;;20.90;99.90;;;;;;4847009;29;20057;-92
2021/09/05 12:25:19;;;;;;;8.45;5.97;;;21.20;99.90;;;;;;4844173;29;20447;-92
2021/09/05 12:28:06;;;;;;;11.20;5.60;;;21.30;99.90;;;;;;4859854;29;20063;-92
2021/09/05 12:30:36;;;;;;;8.25;5.50;;;21.50;99.90;;;;;;4859929;29;20060;-92
2021/09/05 12:33:09;;;;;;;11.07;5.68;;;21.50;99.90;;;;;;4843816;29;20049;-91